sensor_id;sensor_type;location;lat;lon;timestamp;temperature;humidity
12959;DHT22;6544;51.666;6.634;2023-05-08T00:00:10;16.40;99.90
12959;DHT22;6544;51.666;6.634;2023-05-08T00:02:39;16.30;99.90
12959;DHT22;6544;51.666;6.634;2023-05-08T00:05:06;16.30;99.90
12959;DHT22;6544;51.666;6.634;2023-05-08T00:07:35;16.30;99.90
12959;DHT22;6544;51.666;6.634;2023-05-08T00:10:02;16.40;99.90
12959;DHT22;6544;51.666;6.634;2023-05-08T00:12:29;16.30;99.90
12959;DHT22;6544;51.666;6.634;2023-05-08T00:14:56;16.30;99.90
12959;DHT22;6544;51.666;6.634;2023-05-08T00:17:23;16.40;99.90
12959;DHT22;6544;51.666;6.634;2023-05-08T00:19:49;16.40;99.90
12959;DHT22;6544;51.666;6.634;2023-05-08T00:22:17;16.50;99.90
12959;DHT22;6544;51.666;6.634;2023-05-08T00:24:46;16.40;99.90
12959;DHT22;6544;51.666;6.634;2023-05-08T00:27:13;16.30;99.90
12959;DHT22;6544;51.666;6.634;2023-05-08T00:29:40;16.30;99.90
12959;DHT22;6544;51.666;6.634;2023-05-08T00:32:07;16.30;99.90
12959;DHT22;6544;51.666;6.634;2023-05-08T00:34:34;16.30;99.90
12959;DHT22;6544;51.666;6.634;2023-05-08T00:37:01;16.40;99.90
12959;DHT22;6544;51.666;6.634;2023-05-08T00:39:28;16.30;99.90
12959;DHT22;6544;51.666;6.634;2023-05-08T00:41:56;16.30;99.90
12959;DHT22;6544;51.666;6.634;2023-05-08T00:44:23;16.30;73.20
12959;DHT22;6544;51.666;6.634;2023-05-08T00:46:50;16.30;32.50
12959;DHT22;6544;51.666;6.634;2023-05-08T00:49:17;16.10;78.40
12959;DHT22;6544;51.666;6.634;2023-05-08T00:51:46;16.10;45.80
12959;DHT22;6544;51.666;6.634;2023-05-08T00:54:14;16.10;65.80
12959;DHT22;6544;51.666;6.634;2023-05-08T00:56:41;16.10;41.10
12959;DHT22;6544;51.666;6.634;2023-05-08T00:59:12;16.00;40.10
12959;DHT22;6544;51.666;6.634;2023-05-08T01:01:40;16.00;36.50
12959;DHT22;6544;51.666;6.634;2023-05-08T01:04:07;15.90;65.40
12959;DHT22;6544;51.666;6.634;2023-05-08T01:06:34;15.90;94.20
12959;DHT22;6544;51.666;6.634;2023-05-08T01:09:02;15.90;40.10
12959;DHT22;6544;51.666;6.634;2023-05-08T01:11:35;15.90;65.90
12959;DHT22;6544;51.666;6.634;2023-05-08T01:14:10;15.90;27.90
12959;DHT22;6544;51.666;6.634;2023-05-08T01:16:44;15.80;70.00
12959;DHT22;6544;51.666;6.634;2023-05-08T01:19:39;15.80;70.90
12959;DHT22;6544;51.666;6.634;2023-05-08T01:22:22;15.70;46.40
12959;DHT22;6544;51.666;6.634;2023-05-08T01:25:22;15.70;57.70
12959;DHT22;6544;51.666;6.634;2023-05-08T01:28:21;15.70;28.60
12959;DHT22;6544;51.666;6.634;2023-05-08T01:31:07;15.50;52.60
12959;DHT22;6544;51.666;6.634;2023-05-08T01:33:44;15.50;79.30
12959;DHT22;6544;51.666;6.634;2023-05-08T01:36:19;15.50;99.90
12959;DHT22;6544;51.666;6.634;2023-05-08T01:38:55;15.50;90.60
12959;DHT22;6544;51.666;6.634;2023-05-08T01:41:27;15.50;99.90
12959;DHT22;6544;51.666;6.634;2023-05-08T01:44:05;15.50;50.10
12959;DHT22;6544;51.666;6.634;2023-05-08T01:46:34;15.40;93.30
12959;DHT22;6544;51.666;6.634;2023-05-08T01:49:05;15.40;79.50
12959;DHT22;6544;51.666;6.634;2023-05-08T01:51:37;15.30;72.60
12959;DHT22;6544;51.666;6.634;2023-05-08T01:54:06;15.30;99.90
12959;DHT22;6544;51.666;6.634;2023-05-08T01:56:35;15.30;99.90
12959;DHT22;6544;51.666;6.634;2023-05-08T01:59:05;15.40;99.90
12959;DHT22;6544;51.666;6.634;2023-05-08T02:01:33;15.40;99.90
12959;DHT22;6544;51.666;6.634;2023-05-08T02:04:03;15.40;95.60
12959;DHT22;6544;51.666;6.634;2023-05-08T02:06:31;15.40;84.80
12959;DHT22;6544;51.666;6.634;2023-05-08T02:08:59;15.40;59.00
12959;DHT22;6544;51.666;6.634;2023-05-08T02:11:27;15.30;99.90
12959;DHT22;6544;51.666;6.634;2023-05-08T02:13:57;15.30;99.90
12959;DHT22;6544;51.666;6.634;2023-05-08T02:16:26;15.30;99.90
12959;DHT22;6544;51.666;6.634;2023-05-08T02:18:55;15.30;99.90
12959;DHT22;6544;51.666;6.634;2023-05-08T02:21:24;15.20;99.90
12959;DHT22;6544;51.666;6.634;2023-05-08T02:23:53;15.30;99.90
12959;DHT22;6544;51.666;6.634;2023-05-08T02:26:22;15.30;99.90
12959;DHT22;6544;51.666;6.634;2023-05-08T02:28:50;15.20;99.90
12959;DHT22;6544;51.666;6.634;2023-05-08T02:31:18;15.10;99.90
12959;DHT22;6544;51.666;6.634;2023-05-08T02:33:46;15.20;99.90
12959;DHT22;6544;51.666;6.634;2023-05-08T02:36:16;15.20;99.90
12959;DHT22;6544;51.666;6.634;2023-05-08T02:38:48;15.20;99.90
12959;DHT22;6544;51.666;6.634;2023-05-08T02:41:17;15.20;99.90
12959;DHT22;6544;51.666;6.634;2023-05-08T02:43:46;15.20;99.90
12959;DHT22;6544;51.666;6.634;2023-05-08T02:46:16;15.20;97.70
12959;DHT22;6544;51.666;6.634;2023-05-08T02:48:55;15.20;99.90
12959;DHT22;6544;51.666;6.634;2023-05-08T02:51:36;15.20;99.90
12959;DHT22;6544;51.666;6.634;2023-05-08T02:54:09;15.20;99.90
12959;DHT22;6544;51.666;6.634;2023-05-08T02:56:57;15.20;99.90
12959;DHT22;6544;51.666;6.634;2023-05-08T02:59:30;15.20;95.70
12959;DHT22;6544;51.666;6.634;2023-05-08T03:02:05;15.20;99.60
12959;DHT22;6544;51.666;6.634;2023-05-08T03:04:46;15.20;96.70
12959;DHT22;6544;51.666;6.634;2023-05-08T03:07:15;15.20;99.90
12959;DHT22;6544;51.666;6.634;2023-05-08T03:09:46;15.20;99.90
12959;DHT22;6544;51.666;6.634;2023-05-08T03:12:19;15.20;97.20
12959;DHT22;6544;51.666;6.634;2023-05-08T03:14:54;15.20;46.40
12959;DHT22;6544;51.666;6.634;2023-05-08T03:17:23;15.10;77.40
12959;DHT22;6544;51.666;6.634;2023-05-08T03:19:55;15.00;99.90
12959;DHT22;6544;51.666;6.634;2023-05-08T03:22:23;15.00;99.90
12959;DHT22;6544;51.666;6.634;2023-05-08T03:24:52;15.00;99.90
12959;DHT22;6544;51.666;6.634;2023-05-08T03:27:20;14.90;99.90
12959;DHT22;6544;51.666;6.634;2023-05-08T03:29:47;14.90;99.90
12959;DHT22;6544;51.666;6.634;2023-05-08T03:32:17;15.00;99.90
12959;DHT22;6544;51.666;6.634;2023-05-08T03:34:45;15.00;99.90
12959;DHT22;6544;51.666;6.634;2023-05-08T03:37:13;15.00;99.90
12959;DHT22;6544;51.666;6.634;2023-05-08T03:39:40;15.00;99.90
12959;DHT22;6544;51.666;6.634;2023-05-08T03:42:08;15.00;99.90
12959;DHT22;6544;51.666;6.634;2023-05-08T03:44:41;15.00;99.90
12959;DHT22;6544;51.666;6.634;2023-05-08T03:47:09;15.10;99.90
12959;DHT22;6544;51.666;6.634;2023-05-08T03:49:37;15.10;99.90
12959;DHT22;6544;51.666;6.634;2023-05-08T03:52:04;15.10;94.50
12959;DHT22;6544;51.666;6.634;2023-05-08T03:54:31;15.10;99.90
12959;DHT22;6544;51.666;6.634;2023-05-08T03:56:58;15.00;99.90
12959;DHT22;6544;51.666;6.634;2023-05-08T03:59:34;15.00;99.90
12959;DHT22;6544;51.666;6.634;2023-05-08T04:02:14;15.00;99.90
12959;DHT22;6544;51.666;6.634;2023-05-08T04:04:44;15.00;99.90
12959;DHT22;6544;51.666;6.634;2023-05-08T04:07:16;15.00;99.90
12959;DHT22;6544;51.666;6.634;2023-05-08T04:09:54;15.00;99.90
12959;DHT22;6544;51.666;6.634;2023-05-08T04:12:29;15.00;99.90
12959;DHT22;6544;51.666;6.634;2023-05-08T04:15:02;15.00;99.90
12959;DHT22;6544;51.666;6.634;2023-05-08T04:17:35;15.00;99.90
12959;DHT22;6544;51.666;6.634;2023-05-08T04:20:07;15.00;99.90
12959;DHT22;6544;51.666;6.634;2023-05-08T04:22:37;14.80;99.90
12959;DHT22;6544;51.666;6.634;2023-05-08T04:25:06;14.90;99.90
12959;DHT22;6544;51.666;6.634;2023-05-08T04:27:35;14.90;99.90
12959;DHT22;6544;51.666;6.634;2023-05-08T04:30:05;14.90;99.90
12959;DHT22;6544;51.666;6.634;2023-05-08T04:32:34;14.90;99.90
12959;DHT22;6544;51.666;6.634;2023-05-08T04:35:01;14.90;99.90
12959;DHT22;6544;51.666;6.634;2023-05-08T04:37:29;14.90;99.90
12959;DHT22;6544;51.666;6.634;2023-05-08T04:39:57;14.90;99.90
12959;DHT22;6544;51.666;6.634;2023-05-08T04:42:24;14.90;99.90
12959;DHT22;6544;51.666;6.634;2023-05-08T04:44:51;14.90;99.90
12959;DHT22;6544;51.666;6.634;2023-05-08T04:47:20;14.90;99.90
12959;DHT22;6544;51.666;6.634;2023-05-08T04:49:48;14.90;99.90
12959;DHT22;6544;51.666;6.634;2023-05-08T04:52:15;15.00;99.90
12959;DHT22;6544;51.666;6.634;2023-05-08T04:54:42;15.10;99.90
12959;DHT22;6544;51.666;6.634;2023-05-08T04:57:09;15.10;99.90
12959;DHT22;6544;51.666;6.634;2023-05-08T04:59:36;15.10;99.90
12959;DHT22;6544;51.666;6.634;2023-05-08T05:02:03;15.20;99.90
12959;DHT22;6544;51.666;6.634;2023-05-08T05:04:33;15.10;99.90
12959;DHT22;6544;51.666;6.634;2023-05-08T05:07:01;15.00;99.90
12959;DHT22;6544;51.666;6.634;2023-05-08T05:09:28;15.10;99.90
12959;DHT22;6544;51.666;6.634;2023-05-08T05:11:55;15.00;99.90
12959;DHT22;6544;51.666;6.634;2023-05-08T05:14:22;15.10;99.90
12959;DHT22;6544;51.666;6.634;2023-05-08T05:16:49;15.00;99.90
12959;DHT22;6544;51.666;6.634;2023-05-08T05:19:16;15.10;99.90
12959;DHT22;6544;51.666;6.634;2023-05-08T05:21:44;15.00;99.90
12959;DHT22;6544;51.666;6.634;2023-05-08T05:24:11;15.00;99.90
12959;DHT22;6544;51.666;6.634;2023-05-08T05:26:38;15.00;99.90
12959;DHT22;6544;51.666;6.634;2023-05-08T05:29:05;15.00;99.90
12959;DHT22;6544;51.666;6.634;2023-05-08T05:31:32;15.10;99.90
12959;DHT22;6544;51.666;6.634;2023-05-08T05:33:59;15.20;99.90
12959;DHT22;6544;51.666;6.634;2023-05-08T05:36:26;15.20;99.90
12959;DHT22;6544;51.666;6.634;2023-05-08T05:38:55;15.20;99.90
12959;DHT22;6544;51.666;6.634;2023-05-08T05:41:22;15.20;99.90
12959;DHT22;6544;51.666;6.634;2023-05-08T05:43:49;15.30;99.90
12959;DHT22;6544;51.666;6.634;2023-05-08T05:46:15;15.10;99.90
12959;DHT22;6544;51.666;6.634;2023-05-08T05:48:43;15.20;99.90
12959;DHT22;6544;51.666;6.634;2023-05-08T05:51:10;15.30;99.90
12959;DHT22;6544;51.666;6.634;2023-05-08T05:53:36;15.40;99.90
12959;DHT22;6544;51.666;6.634;2023-05-08T05:56:05;15.40;99.90
12959;DHT22;6544;51.666;6.634;2023-05-08T05:58:32;15.50;99.90
12959;DHT22;6544;51.666;6.634;2023-05-08T06:00:59;15.50;99.90
12959;DHT22;6544;51.666;6.634;2023-05-08T06:03:26;15.60;99.90
12959;DHT22;6544;51.666;6.634;2023-05-08T06:05:53;15.50;99.90
12959;DHT22;6544;51.666;6.634;2023-05-08T06:08:20;15.60;99.90
12959;DHT22;6544;51.666;6.634;2023-05-08T06:10:47;15.60;99.90
12959;DHT22;6544;51.666;6.634;2023-05-08T06:13:15;15.60;99.90
12959;DHT22;6544;51.666;6.634;2023-05-08T06:15:42;15.60;99.90
12959;DHT22;6544;51.666;6.634;2023-05-08T06:18:09;15.60;99.90
12959;DHT22;6544;51.666;6.634;2023-05-08T06:20:36;15.70;99.90
12959;DHT22;6544;51.666;6.634;2023-05-08T06:23:03;15.80;99.90
12959;DHT22;6544;51.666;6.634;2023-05-08T06:25:30;15.80;99.90
12959;DHT22;6544;51.666;6.634;2023-05-08T06:27:57;15.90;99.90
12959;DHT22;6544;51.666;6.634;2023-05-08T06:30:25;16.00;99.90
12959;DHT22;6544;51.666;6.634;2023-05-08T06:32:52;16.00;1.00
12959;DHT22;6544;51.666;6.634;2023-05-08T06:35:19;16.10;1.00
12959;DHT22;6544;51.666;6.634;2023-05-08T06:37:46;16.20;1.00
12959;DHT22;6544;51.666;6.634;2023-05-08T06:40:13;16.30;99.90
12959;DHT22;6544;51.666;6.634;2023-05-08T06:42:40;16.30;99.90
12959;DHT22;6544;51.666;6.634;2023-05-08T06:45:07;16.30;99.90
12959;DHT22;6544;51.666;6.634;2023-05-08T06:47:36;16.40;99.90
12959;DHT22;6544;51.666;6.634;2023-05-08T06:50:03;16.50;99.90
12959;DHT22;6544;51.666;6.634;2023-05-08T06:52:31;16.50;99.90
12959;DHT22;6544;51.666;6.634;2023-05-08T06:54:58;16.50;99.90
12959;DHT22;6544;51.666;6.634;2023-05-08T06:57:25;16.60;1.00
12959;DHT22;6544;51.666;6.634;2023-05-08T06:59:54;16.80;99.90
12959;DHT22;6544;51.666;6.634;2023-05-08T07:02:21;16.80;99.90
12959;DHT22;6544;51.666;6.634;2023-05-08T07:04:49;16.90;99.90
12959;DHT22;6544;51.666;6.634;2023-05-08T07:07:16;17.00;1.00
12959;DHT22;6544;51.666;6.634;2023-05-08T07:09:43;17.10;1.00
12959;DHT22;6544;51.666;6.634;2023-05-08T07:12:10;17.20;1.00
12959;DHT22;6544;51.666;6.634;2023-05-08T07:14:37;17.30;1.00
12959;DHT22;6544;51.666;6.634;2023-05-08T07:17:04;17.40;1.00
12959;DHT22;6544;51.666;6.634;2023-05-08T07:19:32;17.50;1.00
12959;DHT22;6544;51.666;6.634;2023-05-08T07:22:00;17.60;99.90
12959;DHT22;6544;51.666;6.634;2023-05-08T07:24:27;17.70;99.90
12959;DHT22;6544;51.666;6.634;2023-05-08T07:26:54;17.80;1.00
12959;DHT22;6544;51.666;6.634;2023-05-08T07:29:21;17.80;99.90
12959;DHT22;6544;51.666;6.634;2023-05-08T07:31:48;17.80;99.90
12959;DHT22;6544;51.666;6.634;2023-05-08T07:34:29;17.80;99.90
12959;DHT22;6544;51.666;6.634;2023-05-08T07:37:00;17.90;99.90
12959;DHT22;6544;51.666;6.634;2023-05-08T07:39:27;17.90;99.90
12959;DHT22;6544;51.666;6.634;2023-05-08T07:41:54;17.80;99.90
12959;DHT22;6544;51.666;6.634;2023-05-08T07:44:20;17.80;99.90
12959;DHT22;6544;51.666;6.634;2023-05-08T07:46:47;17.80;99.90
12959;DHT22;6544;51.666;6.634;2023-05-08T07:49:14;17.80;99.90
12959;DHT22;6544;51.666;6.634;2023-05-08T07:51:41;17.80;99.90
12959;DHT22;6544;51.666;6.634;2023-05-08T07:54:09;17.80;99.90
12959;DHT22;6544;51.666;6.634;2023-05-08T07:56:36;17.80;1.00
12959;DHT22;6544;51.666;6.634;2023-05-08T07:59:03;17.90;99.90
12959;DHT22;6544;51.666;6.634;2023-05-08T08:01:30;18.00;99.90
12959;DHT22;6544;51.666;6.634;2023-05-08T08:03:57;18.00;99.90
12959;DHT22;6544;51.666;6.634;2023-05-08T08:06:24;18.00;99.90
12959;DHT22;6544;51.666;6.634;2023-05-08T08:08:50;18.00;99.90
12959;DHT22;6544;51.666;6.634;2023-05-08T08:11:19;18.00;99.90
12959;DHT22;6544;51.666;6.634;2023-05-08T08:13:46;18.00;99.90
12959;DHT22;6544;51.666;6.634;2023-05-08T08:16:12;18.10;99.90
12959;DHT22;6544;51.666;6.634;2023-05-08T08:18:39;18.10;99.90
12959;DHT22;6544;51.666;6.634;2023-05-08T08:21:06;18.20;99.90
12959;DHT22;6544;51.666;6.634;2023-05-08T08:23:33;18.20;99.90
12959;DHT22;6544;51.666;6.634;2023-05-08T08:26:00;18.20;99.90
12959;DHT22;6544;51.666;6.634;2023-05-08T08:28:28;18.30;99.90
12959;DHT22;6544;51.666;6.634;2023-05-08T08:30:55;18.30;99.90
12959;DHT22;6544;51.666;6.634;2023-05-08T08:33:22;18.40;99.90
12959;DHT22;6544;51.666;6.634;2023-05-08T08:35:49;18.50;99.90
12959;DHT22;6544;51.666;6.634;2023-05-08T08:38:16;18.50;99.90
12959;DHT22;6544;51.666;6.634;2023-05-08T08:40:43;18.50;99.90
12959;DHT22;6544;51.666;6.634;2023-05-08T08:43:10;18.50;99.90
12959;DHT22;6544;51.666;6.634;2023-05-08T08:45:38;18.70;99.90
12959;DHT22;6544;51.666;6.634;2023-05-08T08:48:09;18.80;99.90
12959;DHT22;6544;51.666;6.634;2023-05-08T08:50:41;19.00;78.30
12959;DHT22;6544;51.666;6.634;2023-05-08T08:53:12;19.10;99.90
12959;DHT22;6544;51.666;6.634;2023-05-08T08:55:45;19.20;42.10
12959;DHT22;6544;51.666;6.634;2023-05-08T08:58:19;19.30;1.00
12959;DHT22;6544;51.666;6.634;2023-05-08T09:00:49;19.40;1.00
12959;DHT22;6544;51.666;6.634;2023-05-08T09:03:16;19.40;1.00
12959;DHT22;6544;51.666;6.634;2023-05-08T09:05:43;19.50;1.00
12959;DHT22;6544;51.666;6.634;2023-05-08T09:08:10;19.60;1.00
12959;DHT22;6544;51.666;6.634;2023-05-08T09:10:38;19.60;1.00
12959;DHT22;6544;51.666;6.634;2023-05-08T09:13:05;19.60;1.00
12959;DHT22;6544;51.666;6.634;2023-05-08T09:15:32;19.70;1.00
12959;DHT22;6544;51.666;6.634;2023-05-08T09:18:01;19.70;1.00
12959;DHT22;6544;51.666;6.634;2023-05-08T09:20:28;19.70;1.00
12959;DHT22;6544;51.666;6.634;2023-05-08T09:22:56;19.80;1.00
12959;DHT22;6544;51.666;6.634;2023-05-08T09:25:23;19.80;1.00
12959;DHT22;6544;51.666;6.634;2023-05-08T09:27:50;19.80;1.00
12959;DHT22;6544;51.666;6.634;2023-05-08T09:30:17;20.00;1.00
12959;DHT22;6544;51.666;6.634;2023-05-08T09:32:44;20.00;1.00
12959;DHT22;6544;51.666;6.634;2023-05-08T09:35:12;20.20;1.00
12959;DHT22;6544;51.666;6.634;2023-05-08T09:37:39;20.30;1.00
12959;DHT22;6544;51.666;6.634;2023-05-08T09:40:17;20.30;1.00
12959;DHT22;6544;51.666;6.634;2023-05-08T09:42:45;20.30;1.00
12959;DHT22;6544;51.666;6.634;2023-05-08T09:45:25;20.30;1.00
12959;DHT22;6544;51.666;6.634;2023-05-08T09:47:52;20.20;1.00
12959;DHT22;6544;51.666;6.634;2023-05-08T09:50:20;20.40;1.00
12959;DHT22;6544;51.666;6.634;2023-05-08T09:52:48;20.50;1.00
12959;DHT22;6544;51.666;6.634;2023-05-08T09:55:15;20.50;1.00
12959;DHT22;6544;51.666;6.634;2023-05-08T09:57:52;20.60;1.00
12959;DHT22;6544;51.666;6.634;2023-05-08T10:00:19;20.80;1.00
12959;DHT22;6544;51.666;6.634;2023-05-08T10:02:54;21.00;1.00
12959;DHT22;6544;51.666;6.634;2023-05-08T10:05:24;21.20;1.00
12959;DHT22;6544;51.666;6.634;2023-05-08T10:07:54;21.20;1.00
12959;DHT22;6544;51.666;6.634;2023-05-08T10:10:22;21.10;1.00
12959;DHT22;6544;51.666;6.634;2023-05-08T10:12:51;21.20;1.00
12959;DHT22;6544;51.666;6.634;2023-05-08T10:15:19;21.50;1.00
12959;DHT22;6544;51.666;6.634;2023-05-08T10:17:52;21.50;1.00
12959;DHT22;6544;51.666;6.634;2023-05-08T10:20:20;21.60;1.00
12959;DHT22;6544;51.666;6.634;2023-05-08T10:22:49;21.80;1.00
12959;DHT22;6544;51.666;6.634;2023-05-08T10:25:19;21.80;1.00
12959;DHT22;6544;51.666;6.634;2023-05-08T10:27:53;21.80;1.00
12959;DHT22;6544;51.666;6.634;2023-05-08T10:33:44;21.60;1.00
12959;DHT22;6544;51.666;6.634;2023-05-08T10:36:11;21.60;1.00
12959;DHT22;6544;51.666;6.634;2023-05-08T10:38:40;21.80;1.00
12959;DHT22;6544;51.666;6.634;2023-05-08T10:41:09;21.80;1.00
12959;DHT22;6544;51.666;6.634;2023-05-08T10:43:41;21.80;1.00
12959;DHT22;6544;51.666;6.634;2023-05-08T10:46:13;21.80;1.00
12959;DHT22;6544;51.666;6.634;2023-05-08T10:48:49;21.80;1.00
12959;DHT22;6544;51.666;6.634;2023-05-08T10:51:26;21.80;1.00
12959;DHT22;6544;51.666;6.634;2023-05-08T10:54:07;21.90;1.00
12959;DHT22;6544;51.666;6.634;2023-05-08T10:56:38;22.00;1.00
12959;DHT22;6544;51.666;6.634;2023-05-08T10:59:05;22.00;1.00
12959;DHT22;6544;51.666;6.634;2023-05-08T11:01:32;22.10;1.00
12959;DHT22;6544;51.666;6.634;2023-05-08T11:04:18;22.10;1.00
12959;DHT22;6544;51.666;6.634;2023-05-08T11:06:47;22.10;1.00
12959;DHT22;6544;51.666;6.634;2023-05-08T11:09:26;22.10;1.00
12959;DHT22;6544;51.666;6.634;2023-05-08T11:12:07;22.10;1.00
12959;DHT22;6544;51.666;6.634;2023-05-08T11:14:37;22.20;1.00
12959;DHT22;6544;51.666;6.634;2023-05-08T11:17:06;22.30;1.00
12959;DHT22;6544;51.666;6.634;2023-05-08T11:19:34;22.50;1.00
12959;DHT22;6544;51.666;6.634;2023-05-08T11:22:11;22.50;1.00
12959;DHT22;6544;51.666;6.634;2023-05-08T11:24:46;22.50;1.00
12959;DHT22;6544;51.666;6.634;2023-05-08T11:27:13;22.50;1.00
12959;DHT22;6544;51.666;6.634;2023-05-08T11:29:40;22.60;1.00
12959;DHT22;6544;51.666;6.634;2023-05-08T11:32:07;22.70;1.00
12959;DHT22;6544;51.666;6.634;2023-05-08T11:34:46;22.70;1.00
12959;DHT22;6544;51.666;6.634;2023-05-08T11:37:18;22.60;1.00
12959;DHT22;6544;51.666;6.634;2023-05-08T11:39:47;22.40;1.00
12959;DHT22;6544;51.666;6.634;2023-05-08T11:42:32;22.50;1.00
12959;DHT22;6544;51.666;6.634;2023-05-08T11:45:07;22.70;1.00
12959;DHT22;6544;51.666;6.634;2023-05-08T11:47:37;22.70;1.00
12959;DHT22;6544;51.666;6.634;2023-05-08T11:50:05;22.90;99.90
12959;DHT22;6544;51.666;6.634;2023-05-08T11:52:34;23.00;1.00
12959;DHT22;6544;51.666;6.634;2023-05-08T11:55:05;23.20;1.00
12959;DHT22;6544;51.666;6.634;2023-05-08T11:57:33;23.20;99.90
12959;DHT22;6544;51.666;6.634;2023-05-08T12:00:13;23.30;99.90
12959;DHT22;6544;51.666;6.634;2023-05-08T12:02:42;23.50;99.90
12959;DHT22;6544;51.666;6.634;2023-05-08T12:05:10;23.40;99.90
12959;DHT22;6544;51.666;6.634;2023-05-08T12:07:42;23.50;99.90
12959;DHT22;6544;51.666;6.634;2023-05-08T12:10:12;23.60;99.90
12959;DHT22;6544;51.666;6.634;2023-05-08T12:12:39;23.70;99.90
12959;DHT22;6544;51.666;6.634;2023-05-08T12:15:07;23.80;99.90
12959;DHT22;6544;51.666;6.634;2023-05-08T12:17:35;24.00;99.90
12959;DHT22;6544;51.666;6.634;2023-05-08T12:20:09;24.00;99.90
12959;DHT22;6544;51.666;6.634;2023-05-08T12:22:38;24.10;99.90
12959;DHT22;6544;51.666;6.634;2023-05-08T12:25:05;24.20;99.90
12959;DHT22;6544;51.666;6.634;2023-05-08T12:27:35;24.10;99.90
12959;DHT22;6544;51.666;6.634;2023-05-08T12:30:05;24.10;99.90
12959;DHT22;6544;51.666;6.634;2023-05-08T12:32:33;24.10;99.90
12959;DHT22;6544;51.666;6.634;2023-05-08T12:35:02;24.20;99.90
12959;DHT22;6544;51.666;6.634;2023-05-08T12:37:29;24.20;99.90
12959;DHT22;6544;51.666;6.634;2023-05-08T12:39:56;24.20;99.90
12959;DHT22;6544;51.666;6.634;2023-05-08T12:42:41;24.10;99.90
12959;DHT22;6544;51.666;6.634;2023-05-08T12:45:16;24.10;99.90
12959;DHT22;6544;51.666;6.634;2023-05-08T12:47:45;24.20;99.90
12959;DHT22;6544;51.666;6.634;2023-05-08T12:50:14;24.20;99.90
12959;DHT22;6544;51.666;6.634;2023-05-08T12:52:41;24.10;99.90
12959;DHT22;6544;51.666;6.634;2023-05-08T12:55:25;24.00;99.90
12959;DHT22;6544;51.666;6.634;2023-05-08T12:58:10;24.00;99.90
12959;DHT22;6544;51.666;6.634;2023-05-08T13:00:39;24.10;99.90
12959;DHT22;6544;51.666;6.634;2023-05-08T13:03:07;24.10;99.90
12959;DHT22;6544;51.666;6.634;2023-05-08T13:05:35;24.10;99.90
12959;DHT22;6544;51.666;6.634;2023-05-08T13:08:03;24.30;99.90
12959;DHT22;6544;51.666;6.634;2023-05-08T13:10:44;24.20;99.90
12959;DHT22;6544;51.666;6.634;2023-05-08T13:13:12;24.40;99.90
12959;DHT22;6544;51.666;6.634;2023-05-08T13:15:40;24.30;99.90
12959;DHT22;6544;51.666;6.634;2023-05-08T13:18:07;24.30;99.90
12959;DHT22;6544;51.666;6.634;2023-05-08T13:20:34;24.30;99.90
12959;DHT22;6544;51.666;6.634;2023-05-08T13:23:01;24.30;99.90
12959;DHT22;6544;51.666;6.634;2023-05-08T13:25:29;24.20;99.90
12959;DHT22;6544;51.666;6.634;2023-05-08T13:27:56;24.00;99.90
12959;DHT22;6544;51.666;6.634;2023-05-08T13:30:24;23.80;99.90
12959;DHT22;6544;51.666;6.634;2023-05-08T13:32:52;23.80;99.90
12959;DHT22;6544;51.666;6.634;2023-05-08T13:35:19;23.70;99.90
12959;DHT22;6544;51.666;6.634;2023-05-08T13:37:47;23.60;99.90
12959;DHT22;6544;51.666;6.634;2023-05-08T13:40:14;23.60;99.90
12959;DHT22;6544;51.666;6.634;2023-05-08T13:42:41;23.50;99.90
12959;DHT22;6544;51.666;6.634;2023-05-08T13:45:09;23.60;99.90
12959;DHT22;6544;51.666;6.634;2023-05-08T13:47:40;23.70;99.90
12959;DHT22;6544;51.666;6.634;2023-05-08T13:50:08;23.80;99.90
12959;DHT22;6544;51.666;6.634;2023-05-08T13:52:36;23.90;99.90
12959;DHT22;6544;51.666;6.634;2023-05-08T13:55:04;23.80;99.90
12959;DHT22;6544;51.666;6.634;2023-05-08T13:57:31;23.70;99.90
12959;DHT22;6544;51.666;6.634;2023-05-08T13:59:58;23.80;99.90
12959;DHT22;6544;51.666;6.634;2023-05-08T14:02:25;24.00;99.90
12959;DHT22;6544;51.666;6.634;2023-05-08T14:04:54;24.10;99.90
12959;DHT22;6544;51.666;6.634;2023-05-08T14:07:20;24.20;99.90
12959;DHT22;6544;51.666;6.634;2023-05-08T14:09:47;24.10;99.90
12959;DHT22;6544;51.666;6.634;2023-05-08T14:12:14;24.00;99.90
12959;DHT22;6544;51.666;6.634;2023-05-08T14:14:41;24.10;99.90
12959;DHT22;6544;51.666;6.634;2023-05-08T14:17:08;24.00;99.90
12959;DHT22;6544;51.666;6.634;2023-05-08T14:19:35;23.90;99.90
12959;DHT22;6544;51.666;6.634;2023-05-08T14:22:04;24.00;99.90
12959;DHT22;6544;51.666;6.634;2023-05-08T14:24:31;24.20;99.90
12959;DHT22;6544;51.666;6.634;2023-05-08T14:26:58;24.00;99.90
12959;DHT22;6544;51.666;6.634;2023-05-08T14:29:26;24.00;99.90
12959;DHT22;6544;51.666;6.634;2023-05-08T14:31:53;23.90;99.90
12959;DHT22;6544;51.666;6.634;2023-05-08T14:34:20;23.90;99.90
12959;DHT22;6544;51.666;6.634;2023-05-08T14:36:47;23.70;99.90
12959;DHT22;6544;51.666;6.634;2023-05-08T14:39:15;23.60;99.90
12959;DHT22;6544;51.666;6.634;2023-05-08T14:41:42;23.60;99.90
12959;DHT22;6544;51.666;6.634;2023-05-08T14:44:09;23.60;99.90
12959;DHT22;6544;51.666;6.634;2023-05-08T14:46:36;23.70;99.90
12959;DHT22;6544;51.666;6.634;2023-05-08T14:49:03;23.60;99.90
12959;DHT22;6544;51.666;6.634;2023-05-08T14:51:30;23.40;99.90
12959;DHT22;6544;51.666;6.634;2023-05-08T14:53:57;23.20;99.90
12959;DHT22;6544;51.666;6.634;2023-05-08T14:56:25;23.10;99.90
12959;DHT22;6544;51.666;6.634;2023-05-08T14:58:52;23.10;99.90
12959;DHT22;6544;51.666;6.634;2023-05-08T15:01:20;23.00;99.90
12959;DHT22;6544;51.666;6.634;2023-05-08T15:03:46;23.10;99.90
12959;DHT22;6544;51.666;6.634;2023-05-08T15:06:18;23.00;99.90
12959;DHT22;6544;51.666;6.634;2023-05-08T15:08:45;23.10;99.90
12959;DHT22;6544;51.666;6.634;2023-05-08T15:11:12;23.10;99.90
12959;DHT22;6544;51.666;6.634;2023-05-08T15:13:41;23.10;99.90
12959;DHT22;6544;51.666;6.634;2023-05-08T15:16:07;23.20;99.90
12959;DHT22;6544;51.666;6.634;2023-05-08T15:18:34;23.20;99.90
12959;DHT22;6544;51.666;6.634;2023-05-08T15:21:01;23.10;99.90
12959;DHT22;6544;51.666;6.634;2023-05-08T15:23:28;23.00;99.90
12959;DHT22;6544;51.666;6.634;2023-05-08T15:25:55;22.90;99.90
12959;DHT22;6544;51.666;6.634;2023-05-08T15:28:22;22.90;99.90
12959;DHT22;6544;51.666;6.634;2023-05-08T15:30:50;22.70;99.90
12959;DHT22;6544;51.666;6.634;2023-05-08T15:33:17;22.40;1.00
12959;DHT22;6544;51.666;6.634;2023-05-08T15:35:44;22.20;1.00
12959;DHT22;6544;51.666;6.634;2023-05-08T15:38:11;22.00;1.00
12959;DHT22;6544;51.666;6.634;2023-05-08T15:40:38;22.10;1.00
12959;DHT22;6544;51.666;6.634;2023-05-08T15:43:05;22.20;1.00
12959;DHT22;6544;51.666;6.634;2023-05-08T15:45:31;22.30;1.00
12959;DHT22;6544;51.666;6.634;2023-05-08T15:48:00;22.40;1.00
12959;DHT22;6544;51.666;6.634;2023-05-08T15:50:27;22.40;1.00
12959;DHT22;6544;51.666;6.634;2023-05-08T15:52:54;22.50;1.00
12959;DHT22;6544;51.666;6.634;2023-05-08T15:55:20;22.50;1.00
12959;DHT22;6544;51.666;6.634;2023-05-08T15:57:47;22.60;1.00
12959;DHT22;6544;51.666;6.634;2023-05-08T16:00:15;22.60;1.00
12959;DHT22;6544;51.666;6.634;2023-05-08T16:02:42;22.60;1.00
12959;DHT22;6544;51.666;6.634;2023-05-08T16:05:10;22.50;1.00